createdAt,value
2018-10-11T00:01:19.995Z,94.00
2018-10-11T00:03:48.343Z,94.10
2018-10-11T00:06:16.716Z,94.20
2018-10-11T00:08:45.039Z,94.10
2018-10-11T00:11:13.363Z,94.20
2018-10-11T00:13:41.669Z,94.30
2018-10-11T00:16:10.168Z,94.40
2018-10-11T00:18:38.475Z,94.40
2018-10-11T00:21:06.877Z,94.40
2018-10-11T00:23:35.234Z,94.50
2018-10-11T00:26:03.559Z,94.60
2018-10-11T00:28:31.941Z,94.60
2018-10-11T00:31:00.267Z,94.50
2018-10-11T00:33:28.559Z,94.70
2018-10-11T00:35:57.715Z,94.80
2018-10-11T00:38:26.171Z,94.90
2018-10-11T00:40:54.479Z,94.90
2018-10-11T00:43:22.779Z,94.90
2018-10-11T00:45:51.095Z,95.40
2018-10-11T00:48:19.487Z,95.20
2018-10-11T00:50:47.840Z,95.20
2018-10-11T00:53:16.203Z,95.30
2018-10-11T00:55:44.519Z,95.40
2018-10-11T00:58:12.867Z,95.40
2018-10-11T01:00:41.227Z,95.40
2018-10-11T01:03:09.855Z,95.40
2018-10-11T01:05:38.205Z,95.40
2018-10-11T01:08:06.540Z,95.40
2018-10-11T01:10:34.843Z,95.50
2018-10-11T01:13:03.119Z,95.50
2018-10-11T01:15:31.424Z,95.60
2018-10-11T01:17:59.724Z,95.70
2018-10-11T01:20:28.053Z,95.70
2018-10-11T01:22:56.528Z,95.80
2018-10-11T01:25:24.851Z,95.90
2018-10-11T01:27:53.207Z,96.00
2018-10-11T01:30:21.572Z,96.00
2018-10-11T01:32:49.908Z,96.00
2018-10-11T01:35:18.224Z,96.00
2018-10-11T01:37:46.547Z,96.00
2018-10-11T01:40:14.911Z,96.00
2018-10-11T01:42:43.387Z,96.00
2018-10-11T01:45:11.794Z,96.00
2018-10-11T01:47:40.137Z,96.10
2018-10-11T01:50:08.524Z,96.20
2018-10-11T01:52:36.918Z,96.30
2018-10-11T01:55:05.234Z,96.40
2018-10-11T01:57:33.607Z,96.40
2018-10-11T02:00:01.929Z,96.40
2018-10-11T02:02:30.239Z,96.40
2018-10-11T02:04:58.539Z,96.40
2018-10-11T02:07:26.900Z,96.40
2018-10-11T02:09:55.294Z,96.50
2018-10-11T02:12:23.618Z,96.50
2018-10-11T02:14:51.907Z,96.50
2018-10-11T02:17:20.223Z,96.50
2018-10-11T02:19:48.552Z,96.60
2018-10-11T02:22:16.907Z,96.50
2018-10-11T02:24:45.245Z,96.60
2018-10-11T02:27:13.574Z,96.50
2018-10-11T02:29:41.901Z,96.50
2018-10-11T02:32:10.322Z,96.40
2018-10-11T02:34:38.687Z,96.50
2018-10-11T02:37:07.111Z,96.40
2018-10-11T02:39:35.444Z,96.40
2018-10-11T02:42:03.760Z,96.20
2018-10-11T02:44:32.147Z,96.40
2018-10-11T02:47:00.503Z,96.40
2018-10-11T02:49:28.820Z,96.40
2018-10-11T02:51:57.800Z,96.30
2018-10-11T02:54:26.360Z,96.20
2018-10-11T02:56:59.324Z,96.10
2018-10-11T02:59:32.168Z,96.10
2018-10-11T03:02:02.839Z,96.00
2018-10-11T03:04:32.115Z,96.10
2018-10-11T03:07:00.572Z,96.10
2018-10-11T03:09:28.975Z,96.10
2018-10-11T03:11:57.399Z,96.20
2018-10-11T03:14:26.216Z,96.10
2018-10-11T03:16:54.572Z,96.00
2018-10-11T03:19:22.896Z,96.00
2018-10-11T03:21:51.223Z,95.90
2018-10-11T03:24:19.599Z,95.90
2018-10-11T03:26:47.880Z,95.90
2018-10-11T03:29:16.237Z,95.90
2018-10-11T03:31:44.584Z,95.80
2018-10-11T03:34:12.938Z,95.80
2018-10-11T03:36:41.292Z,95.80
2018-10-11T03:39:09.607Z,95.80
2018-10-11T03:41:37.923Z,95.90
2018-10-11T03:44:06.248Z,96.00
2018-10-11T03:46:34.590Z,96.00
2018-10-11T03:49:02.979Z,96.10
2018-10-11T03:51:31.296Z,96.10
2018-10-11T03:53:59.640Z,96.00
2018-10-11T03:56:27.939Z,95.90
2018-10-11T03:58:56.332Z,96.00
2018-10-11T04:01:24.808Z,96.00
2018-10-11T04:03:53.190Z,96.10
2018-10-11T04:06:21.535Z,96.10
2018-10-11T04:08:49.847Z,96.10
2018-10-11T04:11:18.219Z,96.10
2018-10-11T04:13:46.572Z,96.50
2018-10-11T04:16:14.896Z,96.20
2018-10-11T04:18:43.200Z,96.30
2018-10-11T04:21:11.744Z,96.20
2018-10-11T04:23:40.212Z,96.30
2018-10-11T04:26:08.500Z,96.20
2018-10-11T04:28:36.854Z,96.20
2018-10-11T04:31:05.263Z,96.20
2018-10-11T04:33:33.583Z,96.30
2018-10-11T04:36:02.057Z,96.30
2018-10-11T04:38:30.361Z,96.40
2018-10-11T04:40:59.042Z,96.30
2018-10-11T04:43:27.367Z,96.40
2018-10-11T04:45:55.698Z,96.60
2018-10-11T04:48:24.083Z,96.90
2018-10-11T04:50:52.442Z,96.50
2018-10-11T04:53:20.786Z,96.50
2018-10-11T04:55:49.152Z,96.80
2018-10-11T04:58:17.507Z,96.70
2018-10-11T05:00:45.871Z,96.90
2018-10-11T05:03:14.258Z,96.70
2018-10-11T05:05:43.400Z,96.70
2018-10-11T05:08:12.330Z,96.60
2018-10-11T05:10:40.998Z,96.60
2018-10-11T05:13:09.339Z,96.70
2018-10-11T05:15:38.112Z,96.80
2018-10-11T05:18:07.188Z,96.80
2018-10-11T05:20:35.537Z,96.80
2018-10-11T05:23:03.844Z,96.90
2018-10-11T05:25:32.254Z,96.80
2018-10-11T05:28:00.652Z,96.80
2018-10-11T05:30:29.040Z,96.80
2018-10-11T05:32:57.764Z,96.80
2018-10-11T05:35:26.280Z,96.80
2018-10-11T05:37:54.618Z,96.80
2018-10-11T05:40:23.112Z,96.90
2018-10-11T05:42:51.536Z,97.00
2018-10-11T05:45:23.188Z,97.00
2018-10-11T05:47:51.630Z,97.00
2018-10-11T05:50:20.090Z,97.10
2018-10-11T05:52:48.549Z,97.10
2018-10-11T05:55:17.375Z,97.00
2018-10-11T05:57:45.916Z,97.20
2018-10-11T06:00:14.440Z,97.30
2018-10-11T06:02:59.163Z,97.30
2018-10-11T06:05:27.916Z,97.50
2018-10-11T06:07:56.295Z,97.40
2018-10-11T06:10:25.362Z,97.50
2018-10-11T06:12:53.858Z,97.50
2018-10-11T06:15:22.308Z,97.50
2018-10-11T06:17:50.796Z,97.50
2018-10-11T06:20:19.055Z,97.50
2018-10-11T06:22:47.671Z,97.60
2018-10-11T06:25:16.060Z,97.70
2018-10-11T06:27:44.457Z,97.70
2018-10-11T06:30:14.074Z,97.60
2018-10-11T06:32:43.204Z,97.70
2018-10-11T06:35:12.091Z,97.80
2018-10-11T06:37:40.475Z,97.80
2018-10-11T06:40:08.908Z,97.90
2018-10-11T06:42:37.433Z,98.00
2018-10-11T06:45:07.440Z,98.00
2018-10-11T06:47:35.834Z,98.00
2018-10-11T06:50:04.695Z,98.10
2018-10-11T06:52:34.506Z,98.00
2018-10-11T06:55:03.821Z,98.10
2018-10-11T06:57:32.164Z,98.10
2018-10-11T07:00:00.516Z,98.10
2018-10-11T07:02:28.824Z,98.20
2018-10-11T07:04:57.227Z,98.20
2018-10-11T07:07:25.640Z,98.10
2018-10-11T07:09:53.934Z,98.20
2018-10-11T07:12:22.279Z,98.10
2018-10-11T07:14:50.659Z,97.90
2018-10-11T07:17:18.971Z,97.80
2018-10-11T07:19:47.334Z,97.70
2018-10-11T07:22:15.700Z,97.90
2018-10-11T07:24:44.027Z,97.80
2018-10-11T07:27:12.412Z,97.80
2018-10-11T07:29:40.700Z,97.70
2018-10-11T07:32:09.351Z,97.70
2018-10-11T07:34:37.738Z,97.60
2018-10-11T07:37:06.165Z,97.40
2018-10-11T07:39:34.483Z,97.40
2018-10-11T07:42:02.776Z,97.80
2018-10-11T07:44:31.066Z,97.30
2018-10-11T07:46:59.403Z,97.10
2018-10-11T07:49:27.697Z,96.90
2018-10-11T07:51:56.145Z,96.70
2018-10-11T07:54:29.794Z,96.50
2018-10-11T07:56:58.120Z,96.40
2018-10-11T07:59:26.430Z,96.30
2018-10-11T08:01:54.782Z,96.00
2018-10-11T08:04:23.376Z,95.80
2018-10-11T08:06:51.779Z,95.80
2018-10-11T08:09:20.104Z,95.70
2018-10-11T08:11:48.644Z,95.60
2018-10-11T08:14:17.528Z,95.60
2018-10-11T08:16:46.270Z,95.50
2018-10-11T08:19:14.589Z,95.70
2018-10-11T08:21:42.838Z,95.80
2018-10-11T08:24:11.137Z,95.70
2018-10-11T08:26:39.531Z,95.50
2018-10-11T08:29:07.944Z,94.90
2018-10-11T08:31:36.311Z,94.20
2018-10-11T08:34:04.634Z,93.60
2018-10-11T08:36:33.093Z,93.00
2018-10-11T08:39:01.448Z,92.70
2018-10-11T08:41:29.752Z,92.20
2018-10-11T08:43:58.130Z,91.90
2018-10-11T08:46:26.673Z,91.90
2018-10-11T08:48:54.961Z,91.80
2018-10-11T08:51:23.398Z,91.50
2018-10-11T08:53:52.160Z,91.30
2018-10-11T08:56:20.534Z,90.60
2018-10-11T08:58:49.478Z,90.60
2018-10-11T09:01:17.823Z,90.70
2018-10-11T09:03:46.271Z,90.80
2018-10-11T09:06:15.196Z,90.50
2018-10-11T09:08:43.506Z,90.20
2018-10-11T09:11:12.118Z,90.20
2018-10-11T09:13:40.631Z,90.20
2018-10-11T09:16:08.976Z,90.10
2018-10-11T09:18:37.396Z,89.50
2018-10-11T09:21:06.368Z,89.00
2018-10-11T09:23:34.687Z,89.00
2018-10-11T09:26:03.035Z,89.10
2018-10-11T09:28:31.372Z,88.90
2018-10-11T09:30:59.696Z,88.50
2018-10-11T09:33:28.179Z,88.30
2018-10-11T09:35:56.517Z,87.60
2018-10-11T09:38:24.972Z,87.00
2018-10-11T09:40:53.312Z,86.40
2018-10-11T09:43:21.601Z,86.40
2018-10-11T09:45:50.880Z,86.30
2018-10-11T09:48:19.203Z,86.80
2018-10-11T09:50:47.659Z,86.00
2018-10-11T09:53:16.037Z,85.40
2018-10-11T09:55:44.317Z,85.40
2018-10-11T09:58:12.667Z,85.70
2018-10-11T10:00:46.275Z,83.70
2018-10-11T10:03:14.604Z,82.50
2018-10-11T10:05:42.935Z,82.10
2018-10-11T10:08:11.230Z,81.70
2018-10-11T10:10:39.579Z,81.00
2018-10-11T10:13:07.956Z,80.50
2018-10-11T10:15:36.331Z,80.30
2018-10-11T10:18:04.580Z,80.40
2018-10-11T10:20:32.924Z,79.50
2018-10-11T10:23:01.219Z,79.30
2018-10-11T10:25:29.571Z,79.20
2018-10-11T10:27:57.844Z,78.50
2018-10-11T10:30:56.520Z,76.90
2018-10-11T10:33:25.697Z,74.60
2018-10-11T10:35:53.994Z,72.40
2018-10-11T10:38:23.245Z,68.80
2018-10-11T10:40:51.671Z,66.80
2018-10-11T10:43:20.251Z,64.60
2018-10-11T10:45:48.711Z,62.40
2018-10-11T10:48:17.131Z,61.40
2018-10-11T10:50:45.469Z,60.20
2018-10-11T10:53:13.776Z,58.50
2018-10-11T10:55:42.104Z,57.80
2018-10-11T10:58:10.411Z,57.00
2018-10-11T11:00:38.863Z,56.80
2018-10-11T11:03:07.673Z,55.10
2018-10-11T11:05:36.472Z,54.40
2018-10-11T11:08:05.082Z,52.50
2018-10-11T11:10:33.567Z,51.60
2018-10-11T11:13:01.983Z,51.40
2018-10-11T11:15:30.319Z,51.20
2018-10-11T11:18:12.573Z,50.50
2018-10-11T11:20:40.968Z,49.40
2018-10-11T11:25:45.025Z,47.30
2018-10-11T11:28:31.648Z,47.50
2018-10-11T11:31:04.096Z,46.80
2018-10-11T11:33:41.672Z,46.60
2018-10-11T11:36:12.352Z,45.50
2018-10-11T11:38:40.821Z,44.40
2018-10-11T11:41:12.688Z,43.90
2018-10-11T11:43:41.560Z,43.60
2018-10-11T11:46:24.565Z,43.80
2018-10-11T11:48:52.979Z,43.50
2018-10-11T11:51:21.557Z,43.50
2018-10-11T11:53:50.053Z,42.80
2018-10-11T11:56:18.400Z,42.40
2018-10-11T11:58:46.952Z,41.80
2018-10-11T12:01:17.872Z,40.90
2018-10-11T12:03:46.260Z,41.90
2018-10-11T12:06:24.460Z,41.80
2018-10-11T12:08:52.824Z,41.60
2018-10-11T12:11:23.141Z,40.80
2018-10-11T12:13:51.632Z,40.70
2018-10-11T12:16:20.339Z,39.70
2018-10-11T12:18:48.740Z,38.80
2018-10-11T12:21:17.100Z,39.10
2018-10-11T12:23:45.411Z,39.20
2018-10-11T12:26:13.816Z,38.70
2018-10-11T12:28:43.786Z,39.60
2018-10-11T12:31:12.094Z,39.40
2018-10-11T12:33:41.180Z,38.60
2018-10-11T12:36:10.959Z,38.10
2018-10-11T12:38:39.323Z,38.60
2018-10-11T12:41:07.840Z,38.10
2018-10-11T12:43:36.323Z,37.60
2018-10-11T12:46:05.457Z,37.60
2018-10-11T12:48:36.040Z,37.70
2018-10-11T12:51:04.353Z,37.10
2018-10-11T12:53:32.819Z,36.70
2018-10-11T12:56:01.166Z,36.40
2018-10-11T12:58:29.702Z,36.10
2018-10-11T13:00:59.203Z,35.30
2018-10-11T13:03:28.169Z,35.20
2018-10-11T13:05:57.708Z,35.00
2018-10-11T13:08:26.458Z,34.60
2018-10-11T13:10:54.819Z,34.50
2018-10-11T13:13:23.099Z,35.10
2018-10-11T13:15:51.612Z,35.40
2018-10-11T13:18:19.875Z,34.80
2018-10-11T13:20:48.254Z,33.90
2018-10-11T13:23:19.553Z,34.40
2018-10-11T13:25:44.909Z,34.70
2018-10-11T13:28:13.223Z,35.00
2018-10-11T13:30:41.785Z,34.60
2018-10-11T13:33:10.060Z,35.00
2018-10-11T13:35:38.497Z,35.70
2018-10-11T13:40:46.212Z,36.30
2018-10-11T13:43:18.542Z,36.70
2018-10-11T13:45:46.871Z,37.00
2018-10-11T13:48:17.117Z,37.40
2018-10-11T13:50:49.130Z,37.40
2018-10-11T13:53:24.799Z,38.40
2018-10-11T13:55:59.083Z,39.70
2018-10-11T13:58:31.295Z,40.90
2018-10-11T14:00:59.739Z,42.30
2018-10-11T14:03:28.052Z,43.20
2018-10-11T14:05:56.376Z,44.20
2018-10-11T14:10:59.357Z,46.00
2018-10-11T14:13:27.679Z,46.30
2018-10-11T14:15:56.015Z,47.40
2018-10-11T14:18:24.448Z,48.00
2018-10-11T14:20:52.825Z,48.30
2018-10-11T14:23:21.137Z,48.80
2018-10-11T14:25:49.452Z,49.10
2018-10-11T14:28:17.831Z,49.40
2018-10-11T14:30:46.131Z,49.90
2018-10-11T14:33:14.539Z,50.20
2018-10-11T14:35:42.875Z,50.50
2018-10-11T14:38:11.183Z,50.50
2018-10-11T14:40:39.532Z,50.90
2018-10-11T14:43:08.256Z,50.80
2018-10-11T14:45:36.595Z,51.10
2018-10-11T14:48:04.952Z,51.70
2018-10-11T14:50:33.303Z,52.10
2018-10-11T14:53:01.743Z,52.20
2018-10-11T14:55:30.105Z,52.20
2018-10-11T14:57:58.464Z,53.00
2018-10-11T15:00:26.922Z,53.50
2018-10-11T15:02:55.305Z,54.10
2018-10-11T15:05:23.683Z,54.70
2018-10-11T15:07:52.131Z,55.30
2018-10-11T15:10:20.572Z,55.50
2018-10-11T15:12:48.865Z,55.10
2018-10-11T15:15:17.212Z,55.00
2018-10-11T15:17:45.619Z,55.80
2018-10-11T15:20:13.883Z,56.20
2018-10-11T15:22:42.210Z,56.90
2018-10-11T15:25:10.531Z,56.80
2018-10-11T15:27:38.872Z,56.90
2018-10-11T15:30:07.627Z,57.20
2018-10-11T15:32:36.090Z,57.10
2018-10-11T15:35:04.544Z,57.60
2018-10-11T15:37:32.905Z,57.70
2018-10-11T15:40:01.281Z,58.00
2018-10-11T15:42:29.706Z,57.90
2018-10-11T15:44:57.968Z,58.50
2018-10-11T15:47:26.253Z,59.00
2018-10-11T15:49:54.661Z,59.00
2018-10-11T15:52:23.019Z,60.00
2018-10-11T15:54:51.311Z,60.60
2018-10-11T15:57:19.676Z,61.30
2018-10-11T15:59:48.060Z,61.80
2018-10-11T16:02:16.347Z,62.20
2018-10-11T16:04:44.657Z,63.00
2018-10-11T16:07:13.104Z,63.60
2018-10-11T16:09:41.660Z,64.10
2018-10-11T16:12:10.066Z,64.70
2018-10-11T16:14:38.431Z,65.10
2018-10-11T16:17:06.757Z,65.50
2018-10-11T16:19:35.088Z,66.10
2018-10-11T16:22:03.409Z,66.50
2018-10-11T16:24:31.719Z,67.00
2018-10-11T16:27:00.076Z,67.30
2018-10-11T16:29:28.413Z,67.80
2018-10-11T16:31:56.752Z,68.10
2018-10-11T16:34:25.106Z,68.30
2018-10-11T16:36:53.544Z,68.80
2018-10-11T16:39:21.875Z,69.10
2018-10-11T16:41:50.301Z,69.60
2018-10-11T16:44:18.648Z,70.10
2018-10-11T16:46:47.047Z,70.70
2018-10-11T16:49:15.343Z,71.10
2018-10-11T16:51:43.827Z,71.50
2018-10-11T16:54:12.356Z,72.00
2018-10-11T16:56:41.089Z,72.30
2018-10-11T16:59:09.410Z,72.70
2018-10-11T17:01:37.864Z,73.10
2018-10-11T17:04:06.548Z,73.50
2018-10-11T17:06:34.785Z,73.70
2018-10-11T17:09:03.565Z,74.10
2018-10-11T17:11:32.060Z,74.30
2018-10-11T17:14:00.379Z,74.50
2018-10-11T17:16:28.703Z,75.10
2018-10-11T17:18:57.207Z,75.40
2018-10-11T17:21:25.597Z,75.90
2018-10-11T17:23:54.859Z,76.10
2018-10-11T17:26:23.265Z,76.20
2018-10-11T17:28:51.622Z,76.50
2018-10-11T17:31:20.039Z,76.80
2018-10-11T17:33:48.375Z,77.00
2018-10-11T17:36:16.796Z,77.20
2018-10-11T17:38:45.275Z,77.30
2018-10-11T17:41:13.643Z,77.50
2018-10-11T17:43:42.003Z,77.60
2018-10-11T17:46:10.377Z,77.80
2018-10-11T17:48:38.924Z,78.10
2018-10-11T17:51:07.383Z,78.30
2018-10-11T17:53:35.851Z,78.60
2018-10-11T17:56:04.330Z,78.70
2018-10-11T17:58:32.786Z,79.00
2018-10-11T18:01:01.136Z,79.30
2018-10-11T18:03:29.523Z,79.60
2018-10-11T18:05:58.072Z,79.80
2018-10-11T18:08:26.566Z,79.90
2018-10-11T18:10:54.932Z,79.90
2018-10-11T18:13:23.275Z,80.10
2018-10-11T18:15:51.663Z,80.30
2018-10-11T18:18:20.063Z,80.40
2018-10-11T18:20:48.592Z,80.50
2018-10-11T18:23:16.924Z,80.50
2018-10-11T18:25:45.260Z,80.50
2018-10-11T18:28:13.585Z,81.20
2018-10-11T18:30:41.901Z,80.60
2018-10-11T18:33:10.196Z,81.40
2018-10-11T18:35:38.579Z,80.90
2018-10-11T18:38:06.999Z,81.00
2018-10-11T18:40:35.337Z,81.00
2018-10-11T18:43:03.934Z,81.10
2018-10-11T18:45:33.280Z,81.10
2018-10-11T18:48:01.633Z,81.10
2018-10-11T18:50:29.973Z,81.20
2018-10-11T18:52:58.368Z,81.20
2018-10-11T18:55:26.773Z,81.20
2018-10-11T18:57:55.238Z,81.20
2018-10-11T19:00:23.624Z,81.10
2018-10-11T19:02:51.927Z,81.20
2018-10-11T19:05:20.284Z,81.20
2018-10-11T19:07:48.664Z,80.70
2018-10-11T19:10:17.096Z,81.30
2018-10-11T19:12:45.458Z,81.40
2018-10-11T19:15:13.905Z,81.50
2018-10-11T19:17:42.288Z,81.60
2018-10-11T19:20:10.612Z,81.60
2018-10-11T19:22:38.979Z,81.80
2018-10-11T19:25:07.316Z,81.70
2018-10-11T19:27:35.944Z,81.70
2018-10-11T19:30:04.404Z,81.80
2018-10-11T19:32:32.823Z,81.80
2018-10-11T19:35:01.180Z,81.90
2018-10-11T19:37:29.484Z,82.00
2018-10-11T19:39:57.818Z,82.00
2018-10-11T19:42:26.173Z,82.00
2018-10-11T19:44:54.609Z,82.00
2018-10-11T19:47:23.043Z,81.90
2018-10-11T19:49:51.364Z,81.60
2018-10-11T19:52:19.759Z,81.70
2018-10-11T19:54:48.452Z,81.70
2018-10-11T19:57:16.828Z,81.70
2018-10-11T19:59:45.283Z,81.60
2018-10-11T20:02:13.738Z,81.70
2018-10-11T20:04:42.048Z,81.70
2018-10-11T20:07:10.624Z,81.60
2018-10-11T20:09:39.019Z,81.40
2018-10-11T20:12:07.360Z,81.40
2018-10-11T20:14:35.656Z,81.40
2018-10-11T20:17:04.001Z,81.40
2018-10-11T20:19:32.491Z,81.40
2018-10-11T20:22:00.996Z,81.30
2018-10-11T20:24:29.335Z,81.40
2018-10-11T20:26:57.771Z,81.40
2018-10-11T20:29:26.141Z,81.70
2018-10-11T20:31:54.476Z,81.60
2018-10-11T20:34:22.832Z,81.60
2018-10-11T20:36:51.137Z,81.80
2018-10-11T20:39:19.635Z,81.90
2018-10-11T20:41:48.008Z,82.00
2018-10-11T20:44:16.372Z,81.90
2018-10-11T20:46:44.703Z,82.00
2018-10-11T20:49:13.000Z,82.20
2018-10-11T20:51:41.467Z,82.30
2018-10-11T20:54:09.710Z,82.40
2018-10-11T20:56:37.999Z,82.50
2018-10-11T20:59:06.923Z,82.80
2018-10-11T21:01:35.220Z,82.80
2018-10-11T21:04:03.676Z,82.90
2018-10-11T21:06:31.997Z,83.20
2018-10-11T21:09:00.302Z,83.40
2018-10-11T21:11:28.635Z,83.50
2018-10-11T21:13:57.158Z,83.80
2018-10-11T21:16:25.537Z,83.80
2018-10-11T21:18:53.927Z,84.00
2018-10-11T21:21:22.319Z,84.00
2018-10-11T21:23:50.631Z,84.10
2018-10-11T21:26:18.953Z,84.40
2018-10-11T21:28:47.314Z,84.40
2018-10-11T21:31:15.667Z,84.60
2018-10-11T21:33:43.987Z,84.80
2018-10-11T21:36:12.287Z,84.80
2018-10-11T21:38:47.367Z,85.00
2018-10-11T21:41:15.708Z,85.30
2018-10-11T21:43:44.027Z,85.40
2018-10-11T21:46:12.454Z,85.60
2018-10-11T21:48:40.748Z,85.80
2018-10-11T21:51:09.031Z,85.90
2018-10-11T21:53:37.372Z,86.00
2018-10-11T21:56:05.691Z,86.10
2018-10-11T21:58:33.972Z,86.20
2018-10-11T22:01:07.684Z,86.30
2018-10-11T22:03:36.051Z,86.80
2018-10-11T22:06:04.383Z,86.50
2018-10-11T22:08:32.777Z,86.70
2018-10-11T22:11:01.044Z,86.70
2018-10-11T22:13:29.322Z,86.70
2018-10-11T22:15:57.651Z,86.60
2018-10-11T22:18:26.039Z,86.80
2018-10-11T22:20:54.566Z,87.00
2018-10-11T22:23:22.869Z,87.10
2018-10-11T22:25:51.217Z,87.20
2018-10-11T22:28:19.580Z,87.20
2018-10-11T22:30:47.991Z,87.00
2018-10-11T22:33:16.308Z,87.10
2018-10-11T22:35:44.628Z,87.30
2018-10-11T22:38:12.963Z,87.30
2018-10-11T22:40:41.383Z,87.40
2018-10-11T22:43:09.881Z,87.40
2018-10-11T22:45:38.264Z,87.40
2018-10-11T22:48:06.688Z,87.40
2018-10-11T22:50:35.113Z,87.40
2018-10-11T22:53:03.514Z,87.50
2018-10-11T22:55:32.755Z,87.70
2018-10-11T22:58:01.836Z,87.90
2018-10-11T23:00:30.192Z,87.90
2018-10-11T23:02:58.619Z,88.20
2018-10-11T23:05:26.975Z,88.30
2018-10-11T23:07:55.273Z,88.30
2018-10-11T23:10:24.387Z,88.40
2018-10-11T23:12:52.724Z,88.30
2018-10-11T23:15:21.105Z,88.30
2018-10-11T23:17:49.535Z,88.40
2018-10-11T23:20:17.879Z,88.50
2018-10-11T23:22:46.232Z,88.50
2018-10-11T23:25:14.700Z,88.50
2018-10-11T23:27:42.998Z,88.50
2018-10-11T23:30:12.354Z,88.70
2018-10-11T23:32:41.648Z,88.80
2018-10-11T23:35:10.815Z,88.90
2018-10-11T23:37:39.471Z,88.90
2018-10-11T23:40:08.471Z,89.00
2018-10-11T23:42:36.935Z,89.00
2018-10-11T23:45:05.480Z,89.00
2018-10-11T23:47:33.817Z,88.90
2018-10-11T23:50:02.114Z,88.80
2018-10-11T23:52:30.444Z,88.90
2018-10-11T23:54:58.769Z,88.90
2018-10-11T23:57:27.066Z,88.80
2018-10-11T23:59:55.360Z,88.90
